createdAt,value
2022-08-05T00:01:30.091Z,19.28
2022-08-05T00:04:03.799Z,19.27
2022-08-05T00:06:33.197Z,19.26
2022-08-05T00:09:02.620Z,19.25
2022-08-05T00:11:30.347Z,19.22
2022-08-05T00:14:02.313Z,19.22
2022-08-05T00:16:52.612Z,19.21
2022-08-05T00:19:24.975Z,19.19
2022-08-05T00:21:59.438Z,19.17
2022-08-05T00:24:30.932Z,19.17
2022-08-05T00:26:58.958Z,19.13
2022-08-05T00:29:26.048Z,19.12
2022-08-05T00:32:13.127Z,19.12
2022-08-05T00:35:05.780Z,19.11
2022-08-05T00:37:35.908Z,19.11
2022-08-05T00:40:27.571Z,19.10
2022-08-05T00:42:56.697Z,19.11
2022-08-05T00:45:25.023Z,19.07
2022-08-05T00:48:09.304Z,19.06
2022-08-05T00:50:37.011Z,19.04
2022-08-05T00:53:03.653Z,19.01
2022-08-05T00:55:42.870Z,18.99
2022-08-05T00:58:16.793Z,18.99
2022-08-05T01:00:47.103Z,18.97
2022-08-05T01:03:23.012Z,18.94
2022-08-05T01:05:54.533Z,18.93
2022-08-05T01:08:40.219Z,18.91
2022-08-05T01:11:24.107Z,18.84
2022-08-05T01:13:59.977Z,18.82
2022-08-05T01:16:51.023Z,18.83
2022-08-05T01:19:30.141Z,18.82
2022-08-05T01:22:34.286Z,18.82
2022-08-05T01:25:40.754Z,18.80
2022-08-05T01:28:26.091Z,18.78
2022-08-05T01:30:59.105Z,18.77
2022-08-05T01:33:35.440Z,18.76
2022-08-05T01:36:12.715Z,18.74
2022-08-05T01:38:45.566Z,18.74
2022-08-05T01:41:14.757Z,18.69
2022-08-05T01:43:42.215Z,18.68
2022-08-05T01:46:16.304Z,18.67
2022-08-05T01:48:58.526Z,18.66
2022-08-05T01:51:30.002Z,18.66
2022-08-05T01:53:58.969Z,18.67
2022-08-05T01:58:09.773Z,18.63
2022-08-05T01:59:19.556Z,18.63
2022-08-05T02:01:50.041Z,18.61
2022-08-05T02:04:19.424Z,18.59
2022-08-05T02:06:46.145Z,18.58
2022-08-05T02:09:14.723Z,18.57
2022-08-05T02:12:10.102Z,18.57
2022-08-05T02:14:47.083Z,18.56
2022-08-05T02:18:28.725Z,18.51
2022-08-05T02:20:22.174Z,18.50
2022-08-05T02:22:56.562Z,18.47
2022-08-05T02:25:32.956Z,18.47
2022-08-05T02:28:02.300Z,18.45
2022-08-05T02:30:54.186Z,18.43
2022-08-05T02:33:24.338Z,18.37
2022-08-05T02:36:03.635Z,18.32
2022-08-05T02:38:35.166Z,18.32
2022-08-05T02:41:06.432Z,18.32
2022-08-05T02:44:06.416Z,18.30
2022-08-05T02:46:33.903Z,18.27
2022-08-05T02:49:01.681Z,18.25
2022-08-05T02:52:02.854Z,18.23
2022-08-05T02:54:36.019Z,18.20
2022-08-05T02:57:10.224Z,18.20
2022-08-05T02:59:54.195Z,18.19
2022-08-05T03:02:24.663Z,18.16
2022-08-05T03:04:55.332Z,18.11
2022-08-05T03:07:40.567Z,18.08
2022-08-05T03:10:10.491Z,18.08
2022-08-05T03:12:40.062Z,18.08
2022-08-05T03:15:10.155Z,18.09
2022-08-05T03:17:41.455Z,18.10
2022-08-05T03:20:10.074Z,18.09
2022-08-05T03:22:36.977Z,18.09
2022-08-05T03:25:31.853Z,18.07
2022-08-05T03:27:58.884Z,18.05
2022-08-05T03:30:33.656Z,18.06
2022-08-05T03:33:06.023Z,18.07
2022-08-05T03:35:34.025Z,18.07
2022-08-05T03:38:11.222Z,18.06
2022-08-05T03:40:45.140Z,18.02
2022-08-05T03:43:58.707Z,18.00
2022-08-05T03:46:01.958Z,17.97
2022-08-05T03:48:29.695Z,17.97
2022-08-05T03:52:50.354Z,17.97
2022-08-05T03:55:52.265Z,17.96
2022-08-05T03:56:46.304Z,17.95
2022-08-05T03:59:26.059Z,17.93
2022-08-05T04:01:59.005Z,17.91
2022-08-05T04:04:26.963Z,17.91
2022-08-05T04:06:54.784Z,17.90
2022-08-05T04:09:26.359Z,17.89
2022-08-05T04:11:54.363Z,17.90
2022-08-05T04:14:29.497Z,17.88
2022-08-05T04:16:56.296Z,17.86
2022-08-05T04:19:23.434Z,17.81
2022-08-05T04:22:08.528Z,17.81
2022-08-05T04:24:38.838Z,17.79
2022-08-05T04:27:13.026Z,17.75
2022-08-05T04:29:40.187Z,17.74
2022-08-05T04:32:07.844Z,17.77
2022-08-05T04:34:35.939Z,17.74
2022-08-05T04:37:05.577Z,17.75
2022-08-05T04:39:33.455Z,17.75
2022-08-05T04:42:01.944Z,17.75
2022-08-05T04:44:30.804Z,17.74
2022-08-05T04:46:58.864Z,17.72
2022-08-05T04:49:38.522Z,17.76
2022-08-05T04:52:12.784Z,17.75
2022-08-05T04:54:39.273Z,17.74
2022-08-05T04:57:05.770Z,17.72
2022-08-05T04:59:39.021Z,17.72
2022-08-05T05:02:36.947Z,17.72
2022-08-05T05:05:02.350Z,17.73
2022-08-05T05:07:32.228Z,17.71
2022-08-05T05:09:59.564Z,17.69
2022-08-05T05:12:29.178Z,17.69
2022-08-05T05:14:55.642Z,17.69
2022-08-05T05:17:24.667Z,17.69
2022-08-05T05:19:55.229Z,17.75
2022-08-05T05:22:26.141Z,17.81
2022-08-05T05:24:59.888Z,17.82
2022-08-05T05:27:44.969Z,17.97
2022-08-05T05:30:29.316Z,18.01
2022-08-05T05:33:00.396Z,17.98
2022-08-05T05:35:34.283Z,17.97
2022-08-05T05:38:06.365Z,18.07
2022-08-05T05:40:35.950Z,18.36
2022-08-05T05:43:03.192Z,18.20
2022-08-05T05:45:30.063Z,18.14
2022-08-05T05:48:06.178Z,18.10
2022-08-05T05:50:43.814Z,18.07
2022-08-05T05:53:21.570Z,18.21
2022-08-05T05:55:52.311Z,18.99
2022-08-05T05:58:31.484Z,20.81
2022-08-05T06:01:02.444Z,21.54
2022-08-05T06:04:00.756Z,20.70
2022-08-05T06:06:31.275Z,19.89
2022-08-05T06:08:59.869Z,19.56
2022-08-05T06:11:26.326Z,19.32
2022-08-05T06:13:56.121Z,19.27
2022-08-05T06:16:30.749Z,19.44
2022-08-05T06:19:00.000Z,19.92
2022-08-05T06:21:36.491Z,20.79
2022-08-05T06:24:11.929Z,21.06
2022-08-05T06:26:51.078Z,21.22
2022-08-05T06:29:25.481Z,21.02
2022-08-05T06:32:21.161Z,21.13
2022-08-05T06:34:56.539Z,21.29
2022-08-05T06:37:56.894Z,21.33
2022-08-05T06:40:12.559Z,21.35
2022-08-05T06:42:40.381Z,21.32
2022-08-05T06:45:09.164Z,21.40
2022-08-05T06:48:36.592Z,21.54
2022-08-05T06:50:23.615Z,21.61
2022-08-05T06:52:58.839Z,21.71
2022-08-05T06:55:36.223Z,21.81
2022-08-05T06:58:30.067Z,21.67
2022-08-05T07:00:50.624Z,21.69
2022-08-05T07:03:17.363Z,21.61
2022-08-05T07:05:44.386Z,21.55
2022-08-05T07:08:13.048Z,21.74
2022-08-05T07:10:53.012Z,21.76
2022-08-05T07:13:57.611Z,21.85
2022-08-05T07:17:57.334Z,21.68
2022-08-05T07:22:16.965Z,21.55
2022-08-05T07:24:44.050Z,21.62
2022-08-05T07:27:19.285Z,21.80
2022-08-05T07:30:22.803Z,21.79
2022-08-05T07:32:38.886Z,21.89
2022-08-05T07:35:55.813Z,22.11
2022-08-05T07:37:56.575Z,22.22
2022-08-05T07:40:32.331Z,22.33
2022-08-05T07:43:04.686Z,22.40
2022-08-05T07:45:57.428Z,22.51
2022-08-05T07:49:00.667Z,22.65
2022-08-05T07:51:08.698Z,22.83
2022-08-05T07:53:51.817Z,22.95
2022-08-05T07:57:01.237Z,23.09
2022-08-05T07:59:05.027Z,23.20
2022-08-05T08:01:35.129Z,23.36
2022-08-05T08:04:07.951Z,23.45
2022-08-05T08:06:34.464Z,23.57
2022-08-05T08:09:00.923Z,23.49
2022-08-05T08:11:47.569Z,23.65
2022-08-05T08:14:19.091Z,23.75
2022-08-05T08:16:51.056Z,23.73
2022-08-05T08:20:22.835Z,23.89
2022-08-05T08:22:08.994Z,23.85
2022-08-05T08:24:51.157Z,23.98
2022-08-05T08:27:18.666Z,24.09
2022-08-05T08:30:05.898Z,24.26
2022-08-05T08:32:36.143Z,24.42
2022-08-05T08:35:13.550Z,24.49
2022-08-05T08:37:40.432Z,24.46
2022-08-05T08:40:12.570Z,24.23
2022-08-05T08:42:50.649Z,24.05
2022-08-05T08:45:26.780Z,23.87
2022-08-05T08:48:12.428Z,23.66
2022-08-05T08:51:03.438Z,23.35
2022-08-05T08:53:37.862Z,23.14
2022-08-05T08:56:10.783Z,23.00
2022-08-05T08:58:47.500Z,22.89
2022-08-05T09:01:15.997Z,22.93
2022-08-05T09:03:46.263Z,23.16
2022-08-05T09:06:18.539Z,23.73
2022-08-05T09:08:47.508Z,24.12
2022-08-05T09:11:15.229Z,24.27
2022-08-05T09:14:10.232Z,24.03
2022-08-05T09:16:29.733Z,24.10
2022-08-05T09:18:56.276Z,24.33
2022-08-05T09:22:22.561Z,24.83
2022-08-05T09:24:15.582Z,25.00
2022-08-05T09:26:46.306Z,24.90
2022-08-05T09:29:18.750Z,25.07
2022-08-05T09:32:40.301Z,24.82
2022-08-05T09:34:55.749Z,24.47
2022-08-05T09:38:18.484Z,24.46
2022-08-05T09:40:40.920Z,24.92
2022-08-05T09:43:28.015Z,24.63
2022-08-05T09:46:27.775Z,24.38
2022-08-05T09:49:08.064Z,24.17
2022-08-05T09:51:49.907Z,24.22
2022-08-05T09:54:28.882Z,23.96
2022-08-05T09:56:55.751Z,23.87
2022-08-05T09:59:24.502Z,23.81
2022-08-05T10:01:57.785Z,23.87
2022-08-05T10:04:35.777Z,23.73
2022-08-05T10:07:14.127Z,23.77
2022-08-05T10:10:14.544Z,23.74
2022-08-05T10:12:56.615Z,23.82
2022-08-05T10:15:25.831Z,23.88
2022-08-05T10:18:17.269Z,24.01
2022-08-05T10:20:48.357Z,24.10
2022-08-05T10:23:59.008Z,24.07
2022-08-05T10:26:24.450Z,24.00
2022-08-05T10:28:59.108Z,24.33
2022-08-05T10:32:52.468Z,24.80
2022-08-05T10:34:12.233Z,25.35
2022-08-05T10:36:41.605Z,25.42
2022-08-05T10:39:25.216Z,25.13
2022-08-05T10:42:13.340Z,24.76
2022-08-05T10:44:45.174Z,24.51
2022-08-05T10:47:26.665Z,24.29
2022-08-05T10:50:32.277Z,24.52
2022-08-05T10:53:00.961Z,24.82
2022-08-05T10:55:27.655Z,24.54
2022-08-05T10:58:08.278Z,24.54
2022-08-05T11:00:35.798Z,24.32
2022-08-05T11:03:25.054Z,24.20
2022-08-05T11:06:15.930Z,24.15
2022-08-05T11:09:13.237Z,24.09
2022-08-05T11:11:52.382Z,24.07
2022-08-05T11:15:11.544Z,24.15
2022-08-05T11:17:57.163Z,23.92
2022-08-05T11:20:41.603Z,23.86
2022-08-05T11:23:26.262Z,24.13
2022-08-05T11:26:28.280Z,24.79
2022-08-05T11:29:11.917Z,24.82
2022-08-05T11:31:54.532Z,24.35
2022-08-05T11:34:52.148Z,24.17
2022-08-05T11:38:30.972Z,24.33
2022-08-05T11:41:12.676Z,24.26
2022-08-05T11:44:05.559Z,24.09
2022-08-05T11:47:09.380Z,23.88
2022-08-05T11:49:38.574Z,23.79
2022-08-05T11:52:11.824Z,23.63
2022-08-05T11:54:40.361Z,23.35
2022-08-05T11:57:25.440Z,23.35
2022-08-05T11:59:53.486Z,23.40
2022-08-05T12:02:30.068Z,23.66
2022-08-05T12:04:59.497Z,23.77
2022-08-05T12:08:10.192Z,23.87
2022-08-05T12:10:19.384Z,23.93
2022-08-05T12:12:58.275Z,23.98
2022-08-05T12:15:38.590Z,23.90
2022-08-05T12:18:10.986Z,23.92
2022-08-05T12:20:39.172Z,24.03
2022-08-05T12:23:10.207Z,24.13
2022-08-05T12:25:53.705Z,24.23
2022-08-05T12:28:37.824Z,23.91
2022-08-05T12:31:05.015Z,23.76
2022-08-05T12:33:36.237Z,23.76
2022-08-05T12:36:08.097Z,23.67
2022-08-05T12:38:39.573Z,23.60
2022-08-05T12:41:13.274Z,23.56
2022-08-05T12:43:55.074Z,23.66
2022-08-05T12:46:31.373Z,23.74
2022-08-05T12:49:13.566Z,23.78
2022-08-05T12:52:12.897Z,23.79
2022-08-05T12:54:36.054Z,23.87
2022-08-05T12:57:09.299Z,23.74
2022-08-05T13:01:57.858Z,23.60
2022-08-05T13:02:39.978Z,23.62
2022-08-05T13:05:08.288Z,23.63
2022-08-05T13:07:59.393Z,23.60
2022-08-05T13:10:26.409Z,23.84
2022-08-05T13:12:58.036Z,23.96
2022-08-05T13:15:35.898Z,24.04
2022-08-05T13:18:08.415Z,23.90
2022-08-05T13:20:35.531Z,23.87
2022-08-05T13:23:09.805Z,23.89
2022-08-05T13:25:51.650Z,23.78
2022-08-05T13:28:22.723Z,23.44
2022-08-05T13:30:51.188Z,23.46
2022-08-05T13:34:22.895Z,23.34
2022-08-05T13:36:06.111Z,23.05
2022-08-05T13:38:36.251Z,23.02
2022-08-05T13:41:05.939Z,22.92
2022-08-05T13:43:44.047Z,22.85
2022-08-05T13:46:30.637Z,22.87
2022-08-05T13:49:10.586Z,22.88
2022-08-05T13:51:41.276Z,22.84
2022-08-05T13:54:15.075Z,22.77
2022-08-05T13:56:51.169Z,22.83
2022-08-05T13:59:24.603Z,22.91
2022-08-05T14:01:58.166Z,22.98
2022-08-05T14:04:49.996Z,23.35
2022-08-05T14:07:55.487Z,23.30
2022-08-05T14:10:08.349Z,23.11
2022-08-05T14:12:35.374Z,23.04
2022-08-05T14:16:03.970Z,22.84
2022-08-05T14:17:48.315Z,22.94
2022-08-05T14:20:17.478Z,23.14
2022-08-05T14:22:49.976Z,23.30
2022-08-05T14:25:22.424Z,23.23
2022-08-05T14:27:49.526Z,23.04
2022-08-05T14:30:20.299Z,23.02
2022-08-05T14:32:48.668Z,22.90
2022-08-05T14:35:15.160Z,22.81
2022-08-05T14:37:45.233Z,22.73
2022-08-05T14:40:17.084Z,22.70
2022-08-05T14:42:44.122Z,22.82
2022-08-05T14:45:10.833Z,22.78
2022-08-05T14:48:02.870Z,22.73
2022-08-05T14:50:25.210Z,22.88
2022-08-05T14:52:56.968Z,22.91
2022-08-05T14:55:28.557Z,23.29
2022-08-05T14:58:12.054Z,23.37
2022-08-05T15:00:58.416Z,23.23
2022-08-05T15:03:33.769Z,23.07
2022-08-05T15:06:14.977Z,22.79
2022-08-05T15:09:01.186Z,22.27
2022-08-05T15:11:51.628Z,22.07
2022-08-05T15:14:20.054Z,21.98
2022-08-05T15:17:00.515Z,21.98
2022-08-05T15:19:27.089Z,21.86
2022-08-05T15:21:54.441Z,21.74
2022-08-05T15:24:26.982Z,21.83
2022-08-05T15:26:53.466Z,21.80
2022-08-05T15:29:22.704Z,21.85
2022-08-05T15:31:52.992Z,21.76
2022-08-05T15:34:32.126Z,21.42
2022-08-05T15:37:06.386Z,21.30
2022-08-05T15:41:00.016Z,21.36
2022-08-05T15:42:53.909Z,21.24
2022-08-05T15:45:14.993Z,21.18
2022-08-05T15:47:42.866Z,21.07
2022-08-05T15:50:15.242Z,20.86
2022-08-05T15:52:53.498Z,20.82
2022-08-05T15:55:25.134Z,20.89
2022-08-05T15:58:08.860Z,21.24
2022-08-05T16:00:50.711Z,21.42
2022-08-05T16:03:22.825Z,21.43
2022-08-05T16:05:52.635Z,21.44
2022-08-05T16:08:19.364Z,21.47
2022-08-05T16:10:45.868Z,21.40
2022-08-05T16:13:12.567Z,21.42
2022-08-05T16:15:51.683Z,21.20
2022-08-05T16:18:18.680Z,21.07
2022-08-05T16:20:46.335Z,20.93
2022-08-05T16:23:12.838Z,20.79
2022-08-05T16:25:39.933Z,20.81
2022-08-05T16:28:09.485Z,20.81
2022-08-05T16:30:39.150Z,20.80
2022-08-05T16:33:08.048Z,20.53
2022-08-05T16:35:42.220Z,20.42
2022-08-05T16:38:23.969Z,20.48
2022-08-05T16:41:00.866Z,20.50
2022-08-05T16:43:31.073Z,20.54
2022-08-05T16:46:06.537Z,20.56
2022-08-05T16:48:38.536Z,20.50
2022-08-05T16:51:09.203Z,20.46
2022-08-05T16:54:03.049Z,20.40
2022-08-05T16:56:24.666Z,20.19
2022-08-05T16:58:51.413Z,20.27
2022-08-05T17:01:18.763Z,20.35
2022-08-05T17:03:45.882Z,20.45
2022-08-05T17:06:13.063Z,20.39
2022-08-05T17:08:53.111Z,20.38
2022-08-05T17:11:23.743Z,20.20
2022-08-05T17:14:00.594Z,19.99
2022-08-05T17:16:37.707Z,19.78
2022-08-05T17:19:07.669Z,19.62
2022-08-05T17:21:37.015Z,19.46
2022-08-05T17:24:14.310Z,19.47
2022-08-05T17:26:53.247Z,19.50
2022-08-05T17:29:22.755Z,19.47
2022-08-05T17:31:59.457Z,19.37
2022-08-05T17:34:29.829Z,19.31
2022-08-05T17:36:58.912Z,19.27
2022-08-05T17:39:34.680Z,19.29
2022-08-05T17:42:20.234Z,19.26
2022-08-05T17:44:50.129Z,19.17
2022-08-05T17:47:22.186Z,19.02
2022-08-05T17:50:00.319Z,18.90
2022-08-05T17:52:32.129Z,18.79
2022-08-05T17:54:58.844Z,18.70
2022-08-05T17:57:25.384Z,18.60
2022-08-05T18:00:03.363Z,18.54
2022-08-05T18:02:35.499Z,18.53
2022-08-05T18:05:06.928Z,18.43
2022-08-05T18:07:41.988Z,18.41
2022-08-05T18:10:11.257Z,18.44
2022-08-05T18:12:38.804Z,18.41
2022-08-05T18:15:06.231Z,18.37
2022-08-05T18:17:58.926Z,18.28
2022-08-05T18:20:29.669Z,18.23
2022-08-05T18:23:11.859Z,18.23
2022-08-05T18:25:44.888Z,18.26
2022-08-05T18:28:16.081Z,18.30
2022-08-05T18:30:52.615Z,18.27
2022-08-05T18:33:22.587Z,18.23
2022-08-05T18:36:03.376Z,18.18
2022-08-05T18:38:36.988Z,18.15
2022-08-05T18:41:58.150Z,18.10
2022-08-05T18:43:53.521Z,18.01
2022-08-05T18:46:20.819Z,17.94
2022-08-05T18:48:51.903Z,17.93
2022-08-05T18:52:05.877Z,17.95
2022-08-05T18:54:28.498Z,17.84
2022-08-05T18:57:02.294Z,17.81
2022-08-05T18:59:44.279Z,17.76
2022-08-05T19:02:28.010Z,17.63
2022-08-05T19:05:02.516Z,17.55
2022-08-05T19:07:47.999Z,17.39
2022-08-05T19:10:16.181Z,17.34
2022-08-05T19:12:44.061Z,17.29
2022-08-05T19:15:56.617Z,17.26
2022-08-05T19:18:09.589Z,17.20
2022-08-05T19:20:46.718Z,17.15
2022-08-05T19:24:03.588Z,17.06
2022-08-05T19:26:02.567Z,17.00
2022-08-05T19:28:30.707Z,16.95
2022-08-05T19:30:57.484Z,16.90
2022-08-05T19:33:33.984Z,16.86
2022-08-05T19:36:06.266Z,16.80
2022-08-05T19:38:35.946Z,16.72
2022-08-05T19:41:07.245Z,16.63
2022-08-05T19:44:06.580Z,16.61
2022-08-05T19:46:30.122Z,16.55
2022-08-05T19:49:03.469Z,16.51
2022-08-05T19:52:08.323Z,16.46
2022-08-05T19:54:29.687Z,16.43
2022-08-05T19:57:06.553Z,16.40
2022-08-05T20:00:01.884Z,16.31
2022-08-05T20:02:23.876Z,16.25
2022-08-05T20:04:54.709Z,16.22
2022-08-05T20:07:45.816Z,16.18
2022-08-05T20:10:13.513Z,16.12
2022-08-05T20:12:46.146Z,16.06
2022-08-05T20:15:48.193Z,16.01
2022-08-05T20:18:33.133Z,15.92
2022-08-05T20:20:57.028Z,15.90
2022-08-05T20:23:39.749Z,15.86
2022-08-05T20:26:16.439Z,15.82
2022-08-05T20:28:52.726Z,15.76
2022-08-05T20:31:36.988Z,15.68
2022-08-05T20:34:15.010Z,15.63
2022-08-05T20:36:43.216Z,15.56
2022-08-05T20:39:12.947Z,15.54
2022-08-05T20:41:43.870Z,15.48
2022-08-05T20:44:17.678Z,15.37
2022-08-05T20:46:46.853Z,15.32
2022-08-05T20:49:13.823Z,15.27
2022-08-05T20:51:40.479Z,15.25
2022-08-05T20:54:06.960Z,15.23
2022-08-05T20:56:42.480Z,15.17
2022-08-05T20:59:18.853Z,15.15
2022-08-05T21:01:46.382Z,15.08
2022-08-05T21:04:13.812Z,15.04
2022-08-05T21:06:45.736Z,15.01
2022-08-05T21:09:14.361Z,14.92
2022-08-05T21:12:06.938Z,14.89
2022-08-05T21:14:35.077Z,14.81
2022-08-05T21:17:05.198Z,14.76
2022-08-05T21:19:47.006Z,14.73
2022-08-05T21:22:18.612Z,14.72
2022-08-05T21:24:49.053Z,14.72
2022-08-05T21:27:18.231Z,14.64
2022-08-05T21:29:48.578Z,14.61
2022-08-05T21:32:20.065Z,14.59
2022-08-05T21:35:06.957Z,14.55
2022-08-05T21:37:33.676Z,14.48
2022-08-05T21:40:05.827Z,14.42
2022-08-05T21:42:44.704Z,14.42
2022-08-05T21:45:12.220Z,14.31
2022-08-05T21:47:57.052Z,14.29
2022-08-05T21:50:25.925Z,14.26
2022-08-05T21:52:52.454Z,14.19
2022-08-05T21:55:42.689Z,14.09
2022-08-05T21:58:06.390Z,14.02
2022-08-05T22:00:32.979Z,14.00
2022-08-05T22:03:00.431Z,13.94
2022-08-05T22:05:27.373Z,13.90
2022-08-05T22:07:58.889Z,13.88
2022-08-05T22:10:27.308Z,13.85
2022-08-05T22:12:59.194Z,13.84
2022-08-05T22:16:00.780Z,13.80
2022-08-05T22:18:25.788Z,13.75
2022-08-05T22:20:52.876Z,13.72
2022-08-05T22:24:02.953Z,13.66
2022-08-05T22:26:43.224Z,13.60
2022-08-05T22:29:17.368Z,13.56
2022-08-05T22:31:45.330Z,13.46
2022-08-05T22:34:12.914Z,13.39
2022-08-05T22:36:52.304Z,13.39
2022-08-05T22:39:21.382Z,13.39
2022-08-05T22:42:09.518Z,13.39
2022-08-05T22:44:34.669Z,13.34
2022-08-05T22:47:01.184Z,13.29
2022-08-05T22:50:19.513Z,13.26
2022-08-05T22:52:30.370Z,13.21
2022-08-05T22:55:00.904Z,13.13
2022-08-05T22:57:27.347Z,13.07
2022-08-05T23:00:03.721Z,13.01
2022-08-05T23:02:30.428Z,12.92
2022-08-05T23:05:01.405Z,12.84
2022-08-05T23:07:31.474Z,12.73
2022-08-05T23:10:01.481Z,12.65
2022-08-05T23:12:32.374Z,12.57
2022-08-05T23:15:01.487Z,12.44
2022-08-05T23:17:35.106Z,12.43
2022-08-05T23:20:16.784Z,12.45
2022-08-05T23:22:47.123Z,12.43
2022-08-05T23:25:17.041Z,12.41
2022-08-05T23:28:00.428Z,12.34
2022-08-05T23:30:29.212Z,12.27
2022-08-05T23:32:57.811Z,12.21
2022-08-05T23:35:25.567Z,12.18
2022-08-05T23:38:00.564Z,12.07
2022-08-05T23:40:27.448Z,12.06
2022-08-05T23:42:54.062Z,12.05
2022-08-05T23:45:20.844Z,12.02
2022-08-05T23:47:52.040Z,12.02
2022-08-05T23:50:20.633Z,12.01
2022-08-05T23:52:50.057Z,11.98
2022-08-05T23:55:18.390Z,11.95
2022-08-05T23:57:48.806Z,11.91
